sensor_id;sensor_type;location;lat;lon;timestamp;pressure;altitude;pressure_sealevel;temperature;humidity
67654;BME280;54791;52.364;4.648;2022-07-29T00:02:23;101880.47;;;17.26;100.00
67654;BME280;54791;52.364;4.648;2022-07-29T00:04:49;101878.25;;;17.17;100.00
67654;BME280;54791;52.364;4.648;2022-07-29T00:07:15;101879.19;;;16.99;100.00
67654;BME280;54791;52.364;4.648;2022-07-29T00:09:40;101871.34;;;16.94;100.00
67654;BME280;54791;52.364;4.648;2022-07-29T00:12:06;101878.88;;;16.86;100.00
67654;BME280;54791;52.364;4.648;2022-07-29T00:14:32;101865.72;;;17.00;100.00
67654;BME280;54791;52.364;4.648;2022-07-29T00:16:57;101866.00;;;16.94;100.00
67654;BME280;54791;52.364;4.648;2022-07-29T00:19:23;101865.06;;;16.95;100.00
67654;BME280;54791;52.364;4.648;2022-07-29T00:21:48;101863.66;;;17.05;100.00
67654;BME280;54791;52.364;4.648;2022-07-29T00:24:14;101868.47;;;16.99;100.00
67654;BME280;54791;52.364;4.648;2022-07-29T00:26:40;101860.72;;;16.92;100.00
67654;BME280;54791;52.364;4.648;2022-07-29T00:29:06;101856.72;;;16.82;100.00
67654;BME280;54791;52.364;4.648;2022-07-29T00:31:31;101860.72;;;16.92;100.00
67654;BME280;54791;52.364;4.648;2022-07-29T00:33:57;101855.63;;;16.86;100.00
67654;BME280;54791;52.364;4.648;2022-07-29T00:36:23;101853.63;;;16.91;100.00
67654;BME280;54791;52.364;4.648;2022-07-29T00:38:50;101851.06;;;17.07;100.00
67654;BME280;54791;52.364;4.648;2022-07-29T00:41:17;101850.66;;;16.97;100.00
67654;BME280;54791;52.364;4.648;2022-07-29T00:43:43;101854.28;;;16.96;100.00
67654;BME280;54791;52.364;4.648;2022-07-29T00:46:09;101850.34;;;16.85;100.00
67654;BME280;54791;52.364;4.648;2022-07-29T00:48:35;101841.03;;;16.74;100.00
67654;BME280;54791;52.364;4.648;2022-07-29T00:51:05;101840.91;;;16.58;100.00
67654;BME280;54791;52.364;4.648;2022-07-29T00:53:31;101839.38;;;16.53;100.00
67654;BME280;54791;52.364;4.648;2022-07-29T00:55:58;101837.22;;;16.80;100.00
67654;BME280;54791;52.364;4.648;2022-07-29T00:58:24;101844.44;;;16.78;100.00
67654;BME280;54791;52.364;4.648;2022-07-29T01:00:52;101829.75;;;16.68;100.00
67654;BME280;54791;52.364;4.648;2022-07-29T01:03:18;101827.94;;;16.68;100.00
67654;BME280;54791;52.364;4.648;2022-07-29T01:05:45;101837.44;;;16.56;100.00
67654;BME280;54791;52.364;4.648;2022-07-29T01:08:14;101832.16;;;16.55;100.00
67654;BME280;54791;52.364;4.648;2022-07-29T01:10:41;101841.13;;;16.54;100.00
67654;BME280;54791;52.364;4.648;2022-07-29T01:13:09;101836.88;;;16.50;100.00
67654;BME280;54791;52.364;4.648;2022-07-29T01:15:46;101840.91;;;16.39;100.00
67654;BME280;54791;52.364;4.648;2022-07-29T01:18:43;101840.56;;;16.47;100.00
67654;BME280;54791;52.364;4.648;2022-07-29T01:24:51;101827.25;;;16.45;100.00
67654;BME280;54791;52.364;4.648;2022-07-29T01:27:28;101826.69;;;16.39;100.00
67654;BME280;54791;52.364;4.648;2022-07-29T01:29:59;101823.00;;;16.41;100.00
67654;BME280;54791;52.364;4.648;2022-07-29T01:32:29;101829.84;;;16.47;100.00
67654;BME280;54791;52.364;4.648;2022-07-29T01:35:17;101823.41;;;16.51;100.00
67654;BME280;54791;52.364;4.648;2022-07-29T01:37:48;101819.72;;;16.54;100.00
67654;BME280;54791;52.364;4.648;2022-07-29T01:40:22;101819.25;;;16.63;100.00
67654;BME280;54791;52.364;4.648;2022-07-29T01:42:52;101815.00;;;16.59;100.00
67654;BME280;54791;52.364;4.648;2022-07-29T01:45:26;101812.00;;;16.47;100.00
67654;BME280;54791;52.364;4.648;2022-07-29T01:48:05;101816.34;;;16.50;100.00
67654;BME280;54791;52.364;4.648;2022-07-29T01:50:42;101823.66;;;16.46;100.00
67654;BME280;54791;52.364;4.648;2022-07-29T01:53:13;101817.13;;;16.33;100.00
67654;BME280;54791;52.364;4.648;2022-07-29T01:55:43;101814.25;;;16.38;100.00
67654;BME280;54791;52.364;4.648;2022-07-29T01:58:10;101815.69;;;16.26;100.00
67654;BME280;54791;52.364;4.648;2022-07-29T02:00:39;101807.00;;;16.21;100.00
67654;BME280;54791;52.364;4.648;2022-07-29T02:03:09;101808.16;;;16.34;100.00
67654;BME280;54791;52.364;4.648;2022-07-29T02:05:37;101808.03;;;16.37;100.00
67654;BME280;54791;52.364;4.648;2022-07-29T02:08:05;101807.06;;;16.38;100.00
67654;BME280;54791;52.364;4.648;2022-07-29T02:10:33;101798.19;;;16.19;100.00
67654;BME280;54791;52.364;4.648;2022-07-29T02:13:02;101800.28;;;16.31;100.00
67654;BME280;54791;52.364;4.648;2022-07-29T02:15:30;101795.75;;;16.14;100.00
67654;BME280;54791;52.364;4.648;2022-07-29T02:18:09;101797.03;;;16.24;100.00
67654;BME280;54791;52.364;4.648;2022-07-29T02:20:39;101791.97;;;16.37;100.00
67654;BME280;54791;52.364;4.648;2022-07-29T02:23:07;101791.63;;;16.62;100.00
67654;BME280;54791;52.364;4.648;2022-07-29T02:25:35;101793.22;;;16.67;100.00
67654;BME280;54791;52.364;4.648;2022-07-29T02:28:04;101790.34;;;16.52;100.00
67654;BME280;54791;52.364;4.648;2022-07-29T02:30:31;101794.00;;;16.32;100.00
67654;BME280;54791;52.364;4.648;2022-07-29T02:32:58;101792.25;;;16.12;100.00
67654;BME280;54791;52.364;4.648;2022-07-29T02:35:25;101788.66;;;16.13;100.00
67654;BME280;54791;52.364;4.648;2022-07-29T02:37:52;101787.91;;;16.09;100.00
67654;BME280;54791;52.364;4.648;2022-07-29T02:40:39;101788.66;;;16.13;100.00
67654;BME280;54791;52.364;4.648;2022-07-29T02:43:08;101789.38;;;16.17;100.00
67654;BME280;54791;52.364;4.648;2022-07-29T02:45:35;101790.03;;;16.22;100.00
67654;BME280;54791;52.364;4.648;2022-07-29T02:48:05;101785.69;;;16.19;100.00
67654;BME280;54791;52.364;4.648;2022-07-29T02:50:41;101786.75;;;16.15;100.00
67654;BME280;54791;52.364;4.648;2022-07-29T02:53:21;101791.75;;;16.23;100.00
67654;BME280;54791;52.364;4.648;2022-07-29T02:55:59;101792.66;;;16.41;100.00
67654;BME280;54791;52.364;4.648;2022-07-29T02:58:29;101785.53;;;16.41;100.00
67654;BME280;54791;52.364;4.648;2022-07-29T03:00:59;101782.69;;;16.25;100.00
67654;BME280;54791;52.364;4.648;2022-07-29T03:03:29;101779.69;;;16.14;100.00
67654;BME280;54791;52.364;4.648;2022-07-29T03:05:58;101791.75;;;16.23;100.00
67654;BME280;54791;52.364;4.648;2022-07-29T03:08:26;101784.03;;;16.17;100.00
67654;BME280;54791;52.364;4.648;2022-07-29T03:10:53;101786.34;;;16.05;100.00
67654;BME280;54791;52.364;4.648;2022-07-29T03:13:19;101779.25;;;16.04;100.00
67654;BME280;54791;52.364;4.648;2022-07-29T03:15:46;101772.50;;;16.14;100.00
67654;BME280;54791;52.364;4.648;2022-07-29T03:18:13;101780.25;;;16.02;100.00
67654;BME280;54791;52.364;4.648;2022-07-29T03:20:39;101774.09;;;15.99;100.00
67654;BME280;54791;52.364;4.648;2022-07-29T03:23:06;101785.53;;;16.03;100.00
67654;BME280;54791;52.364;4.648;2022-07-29T03:25:32;101775.63;;;16.05;100.00
67654;BME280;54791;52.364;4.648;2022-07-29T03:27:59;101784.50;;;16.06;100.00
67654;BME280;54791;52.364;4.648;2022-07-29T03:30:24;101777.13;;;15.92;100.00
67654;BME280;54791;52.364;4.648;2022-07-29T03:32:51;101786.81;;;15.94;100.00
67654;BME280;54791;52.364;4.648;2022-07-29T03:35:18;101782.28;;;15.96;100.00
67654;BME280;54791;52.364;4.648;2022-07-29T03:37:45;101776.19;;;15.93;100.00
67654;BME280;54791;52.364;4.648;2022-07-29T03:40:14;101780.03;;;15.87;100.00
67654;BME280;54791;52.364;4.648;2022-07-29T03:42:43;101774.59;;;15.89;100.00
67654;BME280;54791;52.364;4.648;2022-07-29T03:45:15;101758.72;;;15.86;100.00
67654;BME280;54791;52.364;4.648;2022-07-29T03:47:43;101758.28;;;15.95;100.00
67654;BME280;54791;52.364;4.648;2022-07-29T03:50:12;101756.19;;;16.02;100.00
67654;BME280;54791;52.364;4.648;2022-07-29T03:52:40;101751.75;;;16.01;100.00
67654;BME280;54791;52.364;4.648;2022-07-29T03:55:07;101757.53;;;15.91;100.00
67654;BME280;54791;52.364;4.648;2022-07-29T03:57:34;101761.16;;;15.90;100.00
67654;BME280;54791;52.364;4.648;2022-07-29T04:00:01;101757.69;;;15.88;100.00
67654;BME280;54791;52.364;4.648;2022-07-29T04:02:28;101761.22;;;15.89;100.00
67654;BME280;54791;52.364;4.648;2022-07-29T04:04:53;101765.72;;;15.88;100.00
67654;BME280;54791;52.364;4.648;2022-07-29T04:07:19;101770.41;;;15.83;100.00
67654;BME280;54791;52.364;4.648;2022-07-29T04:09:44;101766.94;;;15.81;100.00
67654;BME280;54791;52.364;4.648;2022-07-29T04:12:10;101767.81;;;15.80;100.00
67654;BME280;54791;52.364;4.648;2022-07-29T04:14:36;101767.81;;;15.81;100.00
67654;BME280;54791;52.364;4.648;2022-07-29T04:17:03;101763.50;;;15.77;100.00
67654;BME280;54791;52.364;4.648;2022-07-29T04:19:29;101763.50;;;15.77;100.00
67654;BME280;54791;52.364;4.648;2022-07-29T04:21:56;101758.84;;;15.62;100.00
67654;BME280;54791;52.364;4.648;2022-07-29T04:24:21;101757.41;;;15.55;100.00
67654;BME280;54791;52.364;4.648;2022-07-29T04:26:47;101760.66;;;15.61;100.00
67654;BME280;54791;52.364;4.648;2022-07-29T04:29:13;101764.19;;;15.62;100.00
67654;BME280;54791;52.364;4.648;2022-07-29T04:31:40;101757.91;;;15.63;100.00
67654;BME280;54791;52.364;4.648;2022-07-29T04:34:06;101766.81;;;15.63;100.00
67654;BME280;54791;52.364;4.648;2022-07-29T04:36:32;101767.44;;;15.49;100.00
67654;BME280;54791;52.364;4.648;2022-07-29T04:38:58;101761.81;;;15.56;100.00
67654;BME280;54791;52.364;4.648;2022-07-29T04:41:24;101768.16;;;15.53;100.00
67654;BME280;54791;52.364;4.648;2022-07-29T04:43:49;101761.94;;;15.53;100.00
67654;BME280;54791;52.364;4.648;2022-07-29T04:46:15;101763.53;;;15.57;100.00
67654;BME280;54791;52.364;4.648;2022-07-29T04:48:41;101766.44;;;15.52;100.00
67654;BME280;54791;52.364;4.648;2022-07-29T04:51:07;101772.50;;;15.56;100.00
67654;BME280;54791;52.364;4.648;2022-07-29T04:53:32;101759.16;;;15.56;100.00
67654;BME280;54791;52.364;4.648;2022-07-29T04:55:58;101762.94;;;15.50;100.00
67654;BME280;54791;52.364;4.648;2022-07-29T04:58:23;101760.59;;;15.42;100.00
67654;BME280;54791;52.364;4.648;2022-07-29T05:00:50;101757.28;;;15.37;100.00
67654;BME280;54791;52.364;4.648;2022-07-29T05:03:16;101766.03;;;15.41;100.00
67654;BME280;54791;52.364;4.648;2022-07-29T05:05:42;101761.50;;;15.43;100.00
67654;BME280;54791;52.364;4.648;2022-07-29T05:08:08;101764.34;;;15.38;100.00
67654;BME280;54791;52.364;4.648;2022-07-29T05:10:34;101762.84;;;15.32;100.00
67654;BME280;54791;52.364;4.648;2022-07-29T05:13:05;101764.63;;;15.32;100.00
67654;BME280;54791;52.364;4.648;2022-07-29T05:15:32;101766.28;;;15.35;100.00
67654;BME280;54791;52.364;4.648;2022-07-29T05:17:59;101757.28;;;15.37;100.00
67654;BME280;54791;52.364;4.648;2022-07-29T05:20:24;101760.53;;;15.44;100.00
67654;BME280;54791;52.364;4.648;2022-07-29T05:22:57;101762.50;;;15.40;100.00
67654;BME280;54791;52.364;4.648;2022-07-29T05:25:24;101762.53;;;15.39;100.00
67654;BME280;54791;52.364;4.648;2022-07-29T05:27:51;101772.78;;;15.49;100.00
67654;BME280;54791;52.364;4.648;2022-07-29T05:30:17;101769.50;;;15.63;100.00
67654;BME280;54791;52.364;4.648;2022-07-29T05:32:43;101763.41;;;15.60;100.00
67654;BME280;54791;52.364;4.648;2022-07-29T05:35:09;101762.16;;;15.67;100.00
67654;BME280;54791;52.364;4.648;2022-07-29T05:37:34;101754.81;;;15.72;100.00
67654;BME280;54791;52.364;4.648;2022-07-29T05:40:01;101757.47;;;15.72;100.00
67654;BME280;54791;52.364;4.648;2022-07-29T05:42:27;101763.63;;;15.74;100.00
67654;BME280;54791;52.364;4.648;2022-07-29T05:44:53;101766.72;;;16.05;100.00
67654;BME280;54791;52.364;4.648;2022-07-29T05:47:19;101765.31;;;17.25;100.00
67654;BME280;54791;52.364;4.648;2022-07-29T06:47:07;101791.88;;;17.80;100.00
67654;BME280;54791;52.364;4.648;2022-07-29T07:15:23;101810.47;;;18.97;100.00
67654;BME280;54791;52.364;4.648;2022-07-29T07:17:49;101815.25;;;18.92;100.00
67654;BME280;54791;52.364;4.648;2022-07-29T07:20:16;101813.16;;;18.97;100.00
67654;BME280;54791;52.364;4.648;2022-07-29T07:22:41;101819.69;;;18.93;100.00
67654;BME280;54791;52.364;4.648;2022-07-29T07:25:07;101817.91;;;19.38;100.00
67654;BME280;54791;52.364;4.648;2022-07-29T07:27:34;101812.69;;;19.21;100.00
67654;BME280;54791;52.364;4.648;2022-07-29T07:30:00;101809.19;;;19.04;100.00
67654;BME280;54791;52.364;4.648;2022-07-29T07:32:26;101806.91;;;19.27;100.00
67654;BME280;54791;52.364;4.648;2022-07-29T07:34:52;101810.31;;;19.45;100.00
67654;BME280;54791;52.364;4.648;2022-07-29T07:37:18;101808.41;;;19.47;100.00
67654;BME280;54791;52.364;4.648;2022-07-29T07:39:46;101807.16;;;19.53;100.00
67654;BME280;54791;52.364;4.648;2022-07-29T07:42:11;101809.22;;;19.78;99.67
67654;BME280;54791;52.364;4.648;2022-07-29T07:44:39;101807.56;;;19.61;98.73
67654;BME280;54791;52.364;4.648;2022-07-29T07:47:05;101794.88;;;19.49;100.00
67654;BME280;54791;52.364;4.648;2022-07-29T07:49:31;101804.22;;;20.01;96.51
67654;BME280;54791;52.364;4.648;2022-07-29T07:51:56;101797.94;;;20.44;92.39
67654;BME280;54791;52.364;4.648;2022-07-29T07:54:22;101802.41;;;20.57;89.36
67654;BME280;54791;52.364;4.648;2022-07-29T07:56:48;101794.56;;;20.40;90.36
67654;BME280;54791;52.364;4.648;2022-07-29T07:59:15;101807.88;;;20.29;90.27
67654;BME280;54791;52.364;4.648;2022-07-29T08:01:41;101803.19;;;20.59;89.31
67654;BME280;54791;52.364;4.648;2022-07-29T08:04:08;101808.50;;;20.47;89.20
67654;BME280;54791;52.364;4.648;2022-07-29T08:06:34;101818.09;;;20.51;88.88
67654;BME280;54791;52.364;4.648;2022-07-29T08:09:02;101811.47;;;20.42;88.64
67654;BME280;54791;52.364;4.648;2022-07-29T08:11:28;101813.38;;;20.54;88.73
67654;BME280;54791;52.364;4.648;2022-07-29T08:13:54;101816.22;;;20.38;88.56
67654;BME280;54791;52.364;4.648;2022-07-29T08:16:20;101814.31;;;20.26;89.04
67654;BME280;54791;52.364;4.648;2022-07-29T08:18:46;101819.50;;;20.44;87.60
67654;BME280;54791;52.364;4.648;2022-07-29T08:21:15;101813.00;;;20.61;85.22
67654;BME280;54791;52.364;4.648;2022-07-29T08:23:44;101822.16;;;20.85;84.10
67654;BME280;54791;52.364;4.648;2022-07-29T08:26:29;101812.88;;;21.17;81.86
67654;BME280;54791;52.364;4.648;2022-07-29T08:28:55;101817.03;;;21.74;78.41
67654;BME280;54791;52.364;4.648;2022-07-29T08:31:21;101817.03;;;21.74;75.00
67654;BME280;54791;52.364;4.648;2022-07-29T08:33:47;101811.56;;;21.76;77.25
67654;BME280;54791;52.364;4.648;2022-07-29T08:36:12;101815.28;;;22.12;75.14
67654;BME280;54791;52.364;4.648;2022-07-29T08:38:38;101807.78;;;21.65;77.32
67654;BME280;54791;52.364;4.648;2022-07-29T08:41:04;101811.66;;;21.08;76.20
67654;BME280;54791;52.364;4.648;2022-07-29T08:43:31;101819.25;;;20.88;81.33
67654;BME280;54791;52.364;4.648;2022-07-29T08:45:57;101811.88;;;20.50;82.75
67654;BME280;54791;52.364;4.648;2022-07-29T08:48:23;101814.88;;;20.73;82.92
67654;BME280;54791;52.364;4.648;2022-07-29T08:50:53;101813.63;;;20.79;81.64
67654;BME280;54791;52.364;4.648;2022-07-29T08:53:21;101816.72;;;20.72;81.38
67654;BME280;54791;52.364;4.648;2022-07-29T08:55:48;101811.78;;;20.79;81.10
67654;BME280;54791;52.364;4.648;2022-07-29T08:58:15;101812.00;;;20.62;81.26
67654;BME280;54791;52.364;4.648;2022-07-29T09:00:49;101815.09;;;20.70;81.86
67654;BME280;54791;52.364;4.648;2022-07-29T09:03:18;101816.81;;;20.56;81.86
67654;BME280;54791;52.364;4.648;2022-07-29T09:05:45;101827.63;;;20.42;81.64
67654;BME280;54791;52.364;4.648;2022-07-29T09:08:13;101824.03;;;20.29;82.19
67654;BME280;54791;52.364;4.648;2022-07-29T09:10:39;101818.44;;;20.32;82.22
67654;BME280;54791;52.364;4.648;2022-07-29T09:13:05;101818.00;;;20.52;80.71
67654;BME280;54791;52.364;4.648;2022-07-29T09:15:31;101818.44;;;20.59;79.65
67654;BME280;54791;52.364;4.648;2022-07-29T09:17:57;101814.72;;;20.76;78.65
67654;BME280;54791;52.364;4.648;2022-07-29T09:20:25;101807.13;;;20.54;79.91
67654;BME280;54791;52.364;4.648;2022-07-29T09:22:52;101815.72;;;20.32;81.36
67654;BME280;54791;52.364;4.648;2022-07-29T09:25:32;101812.72;;;20.51;80.92
67654;BME280;54791;52.364;4.648;2022-07-29T09:28:18;101812.09;;;20.60;78.80
67654;BME280;54791;52.364;4.648;2022-07-29T09:30:57;101815.25;;;20.81;78.18
67654;BME280;54791;52.364;4.648;2022-07-29T09:33:36;101809.28;;;21.03;76.79
67654;BME280;54791;52.364;4.648;2022-07-29T09:36:07;101818.97;;;21.46;74.71
67654;BME280;54791;52.364;4.648;2022-07-29T09:38:34;101816.91;;;21.50;73.78
67654;BME280;54791;52.364;4.648;2022-07-29T09:41:03;101822.25;;;21.11;75.96
67654;BME280;54791;52.364;4.648;2022-07-29T09:43:29;101812.44;;;21.10;76.10
67654;BME280;54791;52.364;4.648;2022-07-29T09:45:55;101814.34;;;21.08;76.76
67654;BME280;54791;52.364;4.648;2022-07-29T09:48:23;101812.41;;;20.97;76.84
67654;BME280;54791;52.364;4.648;2022-07-29T09:50:50;101806.06;;;20.71;78.60
67654;BME280;54791;52.364;4.648;2022-07-29T09:53:36;101810.56;;;20.70;77.30
67654;BME280;54791;52.364;4.648;2022-07-29T09:56:03;101805.19;;;20.70;78.22
67654;BME280;54791;52.364;4.648;2022-07-29T09:58:29;101803.88;;;20.90;77.38
67654;BME280;54791;52.364;4.648;2022-07-29T10:00:56;101806.25;;;21.08;76.80
67654;BME280;54791;52.364;4.648;2022-07-29T10:03:22;101804.34;;;21.10;76.22
67654;BME280;54791;52.364;4.648;2022-07-29T10:06:08;101802.78;;;20.93;75.16
67654;BME280;54791;52.364;4.648;2022-07-29T10:08:35;101807.66;;;21.01;76.92
67654;BME280;54791;52.364;4.648;2022-07-29T10:11:21;101803.78;;;21.05;75.32
67654;BME280;54791;52.364;4.648;2022-07-29T10:13:48;101806.44;;;21.32;75.29
67654;BME280;54791;52.364;4.648;2022-07-29T10:16:15;101804.16;;;21.39;74.75
67654;BME280;54791;52.364;4.648;2022-07-29T10:18:43;101805.81;;;21.54;74.22
67654;BME280;54791;52.364;4.648;2022-07-29T10:21:09;101808.06;;;21.48;74.01
67654;BME280;54791;52.364;4.648;2022-07-29T10:23:36;101807.19;;;21.21;74.11
67654;BME280;54791;52.364;4.648;2022-07-29T10:26:03;101816.00;;;21.23;75.51
67654;BME280;54791;52.364;4.648;2022-07-29T10:28:31;101814.22;;;21.50;74.81
67654;BME280;54791;52.364;4.648;2022-07-29T10:31:05;101819.00;;;21.59;73.64
67654;BME280;54791;52.364;4.648;2022-07-29T10:44:19;101811.59;;;22.63;66.54
67654;BME280;54791;52.364;4.648;2022-07-29T10:46:46;101810.03;;;22.47;67.96
67654;BME280;54791;52.364;4.648;2022-07-29T10:49:22;101807.91;;;22.88;65.58
67654;BME280;54791;52.364;4.648;2022-07-29T10:52:02;101806.66;;;22.57;66.80
67654;BME280;54791;52.364;4.648;2022-07-29T10:54:38;101807.16;;;22.25;68.07
67654;BME280;54791;52.364;4.648;2022-07-29T10:57:25;101807.06;;;22.39;66.30
67654;BME280;54791;52.364;4.648;2022-07-29T11:05:07;101806.06;;;22.40;68.25
67654;BME280;54791;52.364;4.648;2022-07-29T11:07:35;101805.84;;;22.30;68.54
67654;BME280;54791;52.364;4.648;2022-07-29T11:10:21;101806.28;;;22.85;62.39
67654;BME280;54791;52.364;4.648;2022-07-29T11:12:49;101800.38;;;23.40;63.66
67654;BME280;54791;52.364;4.648;2022-07-29T11:15:17;101800.78;;;23.58;61.91
67654;BME280;54791;52.364;4.648;2022-07-29T11:20:47;101800.16;;;23.89;55.40
67654;BME280;54791;52.364;4.648;2022-07-29T11:23:34;101795.88;;;23.63;56.31
67654;BME280;54791;52.364;4.648;2022-07-29T11:26:23;101801.50;;;24.40;56.83
67654;BME280;54791;52.364;4.648;2022-07-29T11:28:54;101784.63;;;24.36;58.51
67654;BME280;54791;52.364;4.648;2022-07-29T11:31:32;101793.31;;;24.62;56.40
67654;BME280;54791;52.364;4.648;2022-07-29T11:34:19;101793.69;;;24.58;53.16
67654;BME280;54791;52.364;4.648;2022-07-29T11:39:45;101786.44;;;24.58;56.86
67654;BME280;54791;52.364;4.648;2022-07-29T11:44:57;101786.81;;;24.86;56.01
67654;BME280;54791;52.364;4.648;2022-07-29T11:47:24;101786.22;;;25.15;51.89
67654;BME280;54791;52.364;4.648;2022-07-29T11:49:51;101785.88;;;24.76;55.32
67654;BME280;54791;52.364;4.648;2022-07-29T11:52:18;101786.16;;;24.61;55.19
67654;BME280;54791;52.364;4.648;2022-07-29T11:54:47;101783.94;;;24.99;55.11
67654;BME280;54791;52.364;4.648;2022-07-29T11:57:15;101786.84;;;25.40;53.61
67654;BME280;54791;52.364;4.648;2022-07-29T11:59:44;101786.00;;;25.07;52.91
67654;BME280;54791;52.364;4.648;2022-07-29T12:02:10;101795.53;;;25.22;54.55
67654;BME280;54791;52.364;4.648;2022-07-29T12:04:56;101792.28;;;25.49;51.48
67654;BME280;54791;52.364;4.648;2022-07-29T12:07:33;101785.84;;;25.41;51.82
67654;BME280;54791;52.364;4.648;2022-07-29T12:10:00;101786.78;;;25.61;52.19
67654;BME280;54791;52.364;4.648;2022-07-29T12:12:26;101784.53;;;25.66;52.88
67654;BME280;54791;52.364;4.648;2022-07-29T12:14:52;101780.97;;;25.44;52.40
67654;BME280;54791;52.364;4.648;2022-07-29T12:17:37;101783.78;;;25.95;49.67
67654;BME280;54791;52.364;4.648;2022-07-29T12:20:05;101781.34;;;25.92;51.32
67654;BME280;54791;52.364;4.648;2022-07-29T12:22:32;101783.41;;;25.26;51.81
67654;BME280;54791;52.364;4.648;2022-07-29T12:25:02;101781.97;;;25.64;51.50
67654;BME280;54791;52.364;4.648;2022-07-29T12:27:29;101789.56;;;26.02;50.91
67654;BME280;54791;52.364;4.648;2022-07-29T12:29:56;101783.38;;;25.99;50.82
67654;BME280;54791;52.364;4.648;2022-07-29T12:32:23;101781.97;;;25.64;51.48
67654;BME280;54791;52.364;4.648;2022-07-29T12:34:50;101781.81;;;25.97;50.61
67654;BME280;54791;52.364;4.648;2022-07-29T12:37:16;101785.97;;;26.01;50.66
67654;BME280;54791;52.364;4.648;2022-07-29T12:39:42;101785.22;;;26.30;50.45
67654;BME280;54791;52.364;4.648;2022-07-29T12:42:14;101778.66;;;26.32;44.78
67654;BME280;54791;52.364;4.648;2022-07-29T12:44:45;101793.25;;;26.31;49.56
67654;BME280;54791;52.364;4.648;2022-07-29T12:47:11;101788.47;;;26.14;50.01
67654;BME280;54791;52.364;4.648;2022-07-29T12:49:37;101787.50;;;26.35;49.79
67654;BME280;54791;52.364;4.648;2022-07-29T12:52:23;101780.97;;;26.57;45.43
67654;BME280;54791;52.364;4.648;2022-07-29T12:54:49;101783.81;;;26.45;48.87
67654;BME280;54791;52.364;4.648;2022-07-29T12:57:14;101783.25;;;26.52;49.08
67654;BME280;54791;52.364;4.648;2022-07-29T12:59:41;101778.25;;;26.47;49.35
67654;BME280;54791;52.364;4.648;2022-07-29T13:02:07;101778.22;;;26.37;45.46
67654;BME280;54791;52.364;4.648;2022-07-29T13:04:55;101773.81;;;26.65;46.56
67654;BME280;54791;52.364;4.648;2022-07-29T13:07:27;101772.50;;;26.30;47.92
67654;BME280;54791;52.364;4.648;2022-07-29T13:10:10;101772.50;;;26.30;47.40
67654;BME280;54791;52.364;4.648;2022-07-29T13:12:36;101770.50;;;26.32;45.80
67654;BME280;54791;52.364;4.648;2022-07-29T13:15:15;101768.53;;;26.74;43.65
67654;BME280;54791;52.364;4.648;2022-07-29T13:17:42;101772.13;;;26.84;47.34
67654;BME280;54791;52.364;4.648;2022-07-29T13:20:10;101778.16;;;26.78;47.27
67654;BME280;54791;52.364;4.648;2022-07-29T13:22:47;101771.22;;;26.35;49.24
67654;BME280;54791;52.364;4.648;2022-07-29T13:25:13;101770.34;;;26.34;48.84
67654;BME280;54791;52.364;4.648;2022-07-29T13:27:39;101772.22;;;26.53;48.69
67654;BME280;54791;52.364;4.648;2022-07-29T13:30:10;101769.94;;;25.98;50.15
67654;BME280;54791;52.364;4.648;2022-07-29T13:32:36;101770.00;;;25.46;51.46
67654;BME280;54791;52.364;4.648;2022-07-29T13:35:05;101768.53;;;24.99;52.51
67654;BME280;54791;52.364;4.648;2022-07-29T13:37:33;101764.19;;;25.08;52.61
67654;BME280;54791;52.364;4.648;2022-07-29T13:40:00;101769.34;;;24.90;53.00
67654;BME280;54791;52.364;4.648;2022-07-29T13:42:28;101767.91;;;24.75;53.18
67654;BME280;54791;52.364;4.648;2022-07-29T13:44:54;101768.66;;;24.65;53.55
67654;BME280;54791;52.364;4.648;2022-07-29T13:47:21;101761.69;;;24.51;53.24
67654;BME280;54791;52.364;4.648;2022-07-29T13:49:47;101764.28;;;24.42;54.00
67654;BME280;54791;52.364;4.648;2022-07-29T13:52:13;101759.63;;;24.44;53.71
67654;BME280;54791;52.364;4.648;2022-07-29T13:54:39;101761.78;;;24.50;52.68
67654;BME280;54791;52.364;4.648;2022-07-29T13:57:05;101757.69;;;25.21;51.20
67654;BME280;54791;52.364;4.648;2022-07-29T13:59:31;101766.25;;;25.68;48.48
67654;BME280;54791;52.364;4.648;2022-07-29T14:01:57;101759.47;;;24.89;49.91
67654;BME280;54791;52.364;4.648;2022-07-29T14:04:23;101759.88;;;25.06;50.00
67654;BME280;54791;52.364;4.648;2022-07-29T14:06:49;101757.47;;;24.91;50.57
67654;BME280;54791;52.364;4.648;2022-07-29T14:09:15;101761.91;;;25.56;49.01
67654;BME280;54791;52.364;4.648;2022-07-29T14:11:41;101758.34;;;25.55;48.61
67654;BME280;54791;52.364;4.648;2022-07-29T14:14:07;101758.41;;;25.44;48.84
67654;BME280;54791;52.364;4.648;2022-07-29T14:16:33;101754.13;;;25.41;48.44
67654;BME280;54791;52.364;4.648;2022-07-29T14:18:59;101752.97;;;25.01;49.99
67654;BME280;54791;52.364;4.648;2022-07-29T14:21:25;101763.22;;;24.77;50.86
67654;BME280;54791;52.364;4.648;2022-07-29T14:23:51;101770.81;;;24.50;52.41
67654;BME280;54791;52.364;4.648;2022-07-29T14:26:18;101770.50;;;24.21;53.83
67654;BME280;54791;52.364;4.648;2022-07-29T14:28:43;101766.06;;;23.86;54.95
67654;BME280;54791;52.364;4.648;2022-07-29T14:31:09;101758.22;;;23.72;55.47
67654;BME280;54791;52.364;4.648;2022-07-29T14:33:35;101756.72;;;24.24;54.80
67654;BME280;54791;52.364;4.648;2022-07-29T14:36:01;101763.63;;;24.72;52.81
67654;BME280;54791;52.364;4.648;2022-07-29T14:38:27;101765.53;;;24.81;52.34
67654;BME280;54791;52.364;4.648;2022-07-29T14:40:52;101759.50;;;24.78;52.79
67654;BME280;54791;52.364;4.648;2022-07-29T14:43:18;101767.78;;;25.18;51.63
67654;BME280;54791;52.364;4.648;2022-07-29T14:45:44;101762.25;;;25.20;51.69